sensor_id;sensor_type;location;lat;lon;timestamp;P1;durP1;ratioP1;P2;durP2;ratioP2
18879;SDS011;9572;52.378;13.404;2023-09-12T00:00:42;12.70;;;8.38;;
18879;SDS011;9572;52.378;13.404;2023-09-12T00:04:55;12.38;;;8.10;;
18879;SDS011;9572;52.378;13.404;2023-09-12T00:06:14;10.50;;;8.10;;
18879;SDS011;9572;52.378;13.404;2023-09-12T00:09:02;13.27;;;8.80;;
18879;SDS011;9572;52.378;13.404;2023-09-12T00:11:35;12.57;;;8.50;;
18879;SDS011;9572;52.378;13.404;2023-09-12T00:14:17;12.93;;;9.07;;
18879;SDS011;9572;52.378;13.404;2023-09-12T00:20:25;11.65;;;8.57;;
18879;SDS011;9572;52.378;13.404;2023-09-12T00:26:36;12.57;;;8.25;;
18879;SDS011;9572;52.378;13.404;2023-09-12T00:35:50;12.25;;;8.48;;
18879;SDS011;9572;52.378;13.404;2023-09-12T00:38:39;10.02;;;8.63;;
18879;SDS011;9572;52.378;13.404;2023-09-12T00:44:08;10.15;;;8.63;;
18879;SDS011;9572;52.378;13.404;2023-09-12T00:46:58;11.85;;;8.73;;
18879;SDS011;9572;52.378;13.404;2023-09-12T00:49:36;13.15;;;9.30;;
18879;SDS011;9572;52.378;13.404;2023-09-12T00:52:18;13.50;;;8.88;;
18879;SDS011;9572;52.378;13.404;2023-09-12T00:54:58;9.65;;;7.90;;
18879;SDS011;9572;52.378;13.404;2023-09-12T00:58:09;9.70;;;8.05;;
18879;SDS011;9572;52.378;13.404;2023-09-12T01:00:34;9.45;;;8.02;;
18879;SDS011;9572;52.378;13.404;2023-09-12T01:03:46;10.60;;;8.30;;
18879;SDS011;9572;52.378;13.404;2023-09-12T01:06:38;11.48;;;8.43;;
18879;SDS011;9572;52.378;13.404;2023-09-12T01:09:38;10.70;;;8.30;;
18879;SDS011;9572;52.378;13.404;2023-09-12T01:12:26;9.52;;;8.05;;
18879;SDS011;9572;52.378;13.404;2023-09-12T01:18:41;9.93;;;7.07;;
18879;SDS011;9572;52.378;13.404;2023-09-12T01:21:57;11.05;;;8.02;;
18879;SDS011;9572;52.378;13.404;2023-09-12T01:25:16;10.85;;;7.72;;
18879;SDS011;9572;52.378;13.404;2023-09-12T01:31:47;8.60;;;7.50;;
18879;SDS011;9572;52.378;13.404;2023-09-12T01:52:38;12.27;;;8.95;;
18879;SDS011;9572;52.378;13.404;2023-09-12T01:55:27;8.93;;;7.97;;
18879;SDS011;9572;52.378;13.404;2023-09-12T01:58:26;9.85;;;8.68;;
18879;SDS011;9572;52.378;13.404;2023-09-12T02:01:04;8.80;;;7.90;;
18879;SDS011;9572;52.378;13.404;2023-09-12T02:03:38;9.73;;;7.65;;
18879;SDS011;9572;52.378;13.404;2023-09-12T02:06:25;9.55;;;8.20;;
18879;SDS011;9572;52.378;13.404;2023-09-12T02:15:29;11.90;;;8.70;;
18879;SDS011;9572;52.378;13.404;2023-09-12T02:18:14;9.32;;;8.20;;
18879;SDS011;9572;52.378;13.404;2023-09-12T02:20:45;10.90;;;8.75;;
18879;SDS011;9572;52.378;13.404;2023-09-12T02:23:51;11.80;;;9.18;;
18879;SDS011;9572;52.378;13.404;2023-09-12T02:26:25;13.60;;;8.77;;
18879;SDS011;9572;52.378;13.404;2023-09-12T02:29:04;12.57;;;9.00;;
18879;SDS011;9572;52.378;13.404;2023-09-12T02:31:56;11.95;;;8.65;;
18879;SDS011;9572;52.378;13.404;2023-09-12T02:37:54;14.02;;;10.30;;
18879;SDS011;9572;52.378;13.404;2023-09-12T02:40:50;11.55;;;9.63;;
18879;SDS011;9572;52.378;13.404;2023-09-12T02:46:05;13.23;;;9.23;;
18879;SDS011;9572;52.378;13.404;2023-09-12T02:48:58;12.32;;;8.77;;
18879;SDS011;9572;52.378;13.404;2023-09-12T02:51:27;8.88;;;8.00;;
18879;SDS011;9572;52.378;13.404;2023-09-12T03:00:16;11.18;;;9.18;;
18879;SDS011;9572;52.378;13.404;2023-09-12T03:02:45;11.10;;;8.52;;
18879;SDS011;9572;52.378;13.404;2023-09-12T03:05:26;11.65;;;8.75;;
18879;SDS011;9572;52.378;13.404;2023-09-12T03:08:04;11.35;;;8.50;;
18879;SDS011;9572;52.378;13.404;2023-09-12T03:10:34;10.30;;;8.55;;
18879;SDS011;9572;52.378;13.404;2023-09-12T03:13:07;10.43;;;8.57;;
18879;SDS011;9572;52.378;13.404;2023-09-12T03:15:45;10.98;;;9.02;;
18879;SDS011;9572;52.378;13.404;2023-09-12T03:18:34;10.13;;;8.73;;
18879;SDS011;9572;52.378;13.404;2023-09-12T03:24:08;9.20;;;8.00;;
18879;SDS011;9572;52.378;13.404;2023-09-12T03:26:35;10.88;;;9.02;;
18879;SDS011;9572;52.378;13.404;2023-09-12T03:31:55;8.75;;;7.85;;
18879;SDS011;9572;52.378;13.404;2023-09-12T03:34:27;15.55;;;9.70;;
18879;SDS011;9572;52.378;13.404;2023-09-12T03:37:28;16.05;;;9.65;;
18879;SDS011;9572;52.378;13.404;2023-09-12T03:40:05;15.18;;;9.98;;
18879;SDS011;9572;52.378;13.404;2023-09-12T03:42:41;12.05;;;9.73;;
18879;SDS011;9572;52.378;13.404;2023-09-12T03:45:14;11.00;;;8.90;;
18879;SDS011;9572;52.378;13.404;2023-09-12T03:47:45;12.18;;;9.80;;
18879;SDS011;9572;52.378;13.404;2023-09-12T03:50:21;11.82;;;10.52;;
18879;SDS011;9572;52.378;13.404;2023-09-12T03:52:59;13.65;;;9.50;;
18879;SDS011;9572;52.378;13.404;2023-09-12T03:55:38;11.48;;;8.98;;
18879;SDS011;9572;52.378;13.404;2023-09-12T03:58:11;13.50;;;9.98;;
18879;SDS011;9572;52.378;13.404;2023-09-12T04:00:45;13.23;;;10.25;;
18879;SDS011;9572;52.378;13.404;2023-09-12T04:03:13;11.63;;;10.40;;
18879;SDS011;9572;52.378;13.404;2023-09-12T04:05:48;11.20;;;9.48;;
18879;SDS011;9572;52.378;13.404;2023-09-12T04:11:35;14.02;;;11.48;;
18879;SDS011;9572;52.378;13.404;2023-09-12T04:14:09;15.75;;;11.85;;
18879;SDS011;9572;52.378;13.404;2023-09-12T04:16:42;13.80;;;10.80;;
18879;SDS011;9572;52.378;13.404;2023-09-12T04:19:14;14.30;;;10.35;;
18879;SDS011;9572;52.378;13.404;2023-09-12T04:21:47;12.48;;;9.63;;
18879;SDS011;9572;52.378;13.404;2023-09-12T04:24:18;11.98;;;10.00;;
18879;SDS011;9572;52.378;13.404;2023-09-12T04:26:47;13.52;;;11.25;;
18879;SDS011;9572;52.378;13.404;2023-09-12T04:29:25;12.88;;;10.20;;
18879;SDS011;9572;52.378;13.404;2023-09-12T04:31:56;11.73;;;10.52;;
18879;SDS011;9572;52.378;13.404;2023-09-12T04:34:32;13.18;;;10.00;;
18879;SDS011;9572;52.378;13.404;2023-09-12T04:37:04;14.95;;;11.60;;
18879;SDS011;9572;52.378;13.404;2023-09-12T04:42:46;11.93;;;9.73;;
18879;SDS011;9572;52.378;13.404;2023-09-12T04:45:27;12.85;;;10.90;;
18879;SDS011;9572;52.378;13.404;2023-09-12T04:47:58;14.00;;;11.80;;
18879;SDS011;9572;52.378;13.404;2023-09-12T04:50:31;13.07;;;11.75;;
18879;SDS011;9572;52.378;13.404;2023-09-12T04:53:16;13.13;;;10.65;;
18879;SDS011;9572;52.378;13.404;2023-09-12T04:56:14;15.80;;;12.10;;
18879;SDS011;9572;52.378;13.404;2023-09-12T05:02:11;12.57;;;10.73;;
18879;SDS011;9572;52.378;13.404;2023-09-12T05:04:49;13.35;;;11.52;;
18879;SDS011;9572;52.378;13.404;2023-09-12T05:07:35;15.18;;;12.13;;
18879;SDS011;9572;52.378;13.404;2023-09-12T05:10:08;16.60;;;12.35;;
18879;SDS011;9572;52.378;13.404;2023-09-12T05:12:45;16.13;;;12.90;;
18879;SDS011;9572;52.378;13.404;2023-09-12T05:20:55;16.10;;;12.40;;
18879;SDS011;9572;52.378;13.404;2023-09-12T05:21:07;15.60;;;12.02;;
18879;SDS011;9572;52.378;13.404;2023-09-12T05:23:37;14.35;;;11.65;;
18879;SDS011;9572;52.378;13.404;2023-09-12T05:26:05;12.70;;;11.35;;
18879;SDS011;9572;52.378;13.404;2023-09-12T05:28:33;14.20;;;11.48;;
18879;SDS011;9572;52.378;13.404;2023-09-12T05:31:08;14.75;;;11.98;;
18879;SDS011;9572;52.378;13.404;2023-09-12T05:33:37;12.70;;;11.07;;
18879;SDS011;9572;52.378;13.404;2023-09-12T05:36:04;13.10;;;11.10;;
18879;SDS011;9572;52.378;13.404;2023-09-12T05:38:32;13.00;;;11.20;;
18879;SDS011;9572;52.378;13.404;2023-09-12T05:41:02;13.45;;;10.82;;
18879;SDS011;9572;52.378;13.404;2023-09-12T05:43:31;12.60;;;10.90;;
18879;SDS011;9572;52.378;13.404;2023-09-12T05:46:07;13.18;;;11.27;;
18879;SDS011;9572;52.378;13.404;2023-09-12T05:48:34;12.95;;;10.85;;
18879;SDS011;9572;52.378;13.404;2023-09-12T05:51:04;17.20;;;12.52;;
18879;SDS011;9572;52.378;13.404;2023-09-12T05:53:44;13.65;;;12.15;;
18879;SDS011;9572;52.378;13.404;2023-09-12T05:56:12;18.73;;;13.15;;
18879;SDS011;9572;52.378;13.404;2023-09-12T05:58:48;16.15;;;13.55;;
18879;SDS011;9572;52.378;13.404;2023-09-12T06:01:36;15.55;;;13.02;;
18879;SDS011;9572;52.378;13.404;2023-09-12T06:04:04;18.27;;;13.43;;
18879;SDS011;9572;52.378;13.404;2023-09-12T06:07:14;14.13;;;12.27;;
18879;SDS011;9572;52.378;13.404;2023-09-12T06:09:38;15.68;;;12.88;;
18879;SDS011;9572;52.378;13.404;2023-09-12T06:12:06;15.35;;;11.32;;
18879;SDS011;9572;52.378;13.404;2023-09-12T06:14:35;13.45;;;11.45;;
18879;SDS011;9572;52.378;13.404;2023-09-12T06:19:46;16.02;;;12.48;;
18879;SDS011;9572;52.378;13.404;2023-09-12T06:22:14;17.30;;;11.27;;
18879;SDS011;9572;52.378;13.404;2023-09-12T06:24:42;18.30;;;11.27;;
18879;SDS011;9572;52.378;13.404;2023-09-12T06:27:16;14.88;;;10.85;;
18879;SDS011;9572;52.378;13.404;2023-09-12T06:29:45;22.48;;;12.55;;
18879;SDS011;9572;52.378;13.404;2023-09-12T06:32:14;15.73;;;10.73;;
18879;SDS011;9572;52.378;13.404;2023-09-12T06:34:47;15.70;;;10.77;;
18879;SDS011;9572;52.378;13.404;2023-09-12T06:37:18;11.45;;;9.05;;
18879;SDS011;9572;52.378;13.404;2023-09-12T06:39:55;15.65;;;10.23;;
18879;SDS011;9572;52.378;13.404;2023-09-12T06:42:24;12.45;;;9.85;;
18879;SDS011;9572;52.378;13.404;2023-09-12T06:44:53;13.40;;;9.63;;
18879;SDS011;9572;52.378;13.404;2023-09-12T06:47:28;13.65;;;10.23;;
18879;SDS011;9572;52.378;13.404;2023-09-12T06:50:01;12.90;;;10.05;;
18879;SDS011;9572;52.378;13.404;2023-09-12T06:52:33;12.45;;;9.60;;
18879;SDS011;9572;52.378;13.404;2023-09-12T06:55:01;17.13;;;9.63;;
18879;SDS011;9572;52.378;13.404;2023-09-12T06:57:38;17.35;;;10.95;;
18879;SDS011;9572;52.378;13.404;2023-09-12T07:00:06;13.45;;;10.27;;
18879;SDS011;9572;52.378;13.404;2023-09-12T07:02:35;13.30;;;10.32;;
18879;SDS011;9572;52.378;13.404;2023-09-12T07:05:07;17.73;;;10.18;;
18879;SDS011;9572;52.378;13.404;2023-09-12T07:07:42;15.27;;;9.85;;
18879;SDS011;9572;52.378;13.404;2023-09-12T07:10:11;13.98;;;9.43;;
18879;SDS011;9572;52.378;13.404;2023-09-12T07:12:42;13.13;;;9.65;;
18879;SDS011;9572;52.378;13.404;2023-09-12T07:15:12;14.35;;;10.10;;
18879;SDS011;9572;52.378;13.404;2023-09-12T07:17:41;14.43;;;9.85;;
18879;SDS011;9572;52.378;13.404;2023-09-12T07:20:18;12.18;;;9.00;;
18879;SDS011;9572;52.378;13.404;2023-09-12T07:22:45;14.48;;;9.13;;
18879;SDS011;9572;52.378;13.404;2023-09-12T07:25:15;17.75;;;9.05;;
18879;SDS011;9572;52.378;13.404;2023-09-12T07:27:46;18.88;;;9.10;;
18879;SDS011;9572;52.378;13.404;2023-09-12T07:30:13;11.77;;;7.90;;
18879;SDS011;9572;52.378;13.404;2023-09-12T07:32:41;13.68;;;9.43;;
18879;SDS011;9572;52.378;13.404;2023-09-12T07:35:17;12.07;;;7.63;;
18879;SDS011;9572;52.378;13.404;2023-09-12T07:37:45;13.43;;;8.13;;
18879;SDS011;9572;52.378;13.404;2023-09-12T07:40:12;13.40;;;8.32;;
18879;SDS011;9572;52.378;13.404;2023-09-12T07:42:41;8.70;;;6.93;;
18879;SDS011;9572;52.378;13.404;2023-09-12T07:45:11;14.23;;;8.23;;
18879;SDS011;9572;52.378;13.404;2023-09-12T07:47:42;13.13;;;7.80;;
18879;SDS011;9572;52.378;13.404;2023-09-12T07:50:17;13.68;;;7.82;;
18879;SDS011;9572;52.378;13.404;2023-09-12T07:52:44;10.38;;;6.72;;
18879;SDS011;9572;52.378;13.404;2023-09-12T07:55:11;15.82;;;7.97;;
18879;SDS011;9572;52.378;13.404;2023-09-12T07:57:42;17.17;;;7.57;;
18879;SDS011;9572;52.378;13.404;2023-09-12T08:00:11;18.17;;;7.15;;
18879;SDS011;9572;52.378;13.404;2023-09-12T08:02:42;16.48;;;7.32;;
18879;SDS011;9572;52.378;13.404;2023-09-12T08:05:11;15.40;;;7.43;;
18879;SDS011;9572;52.378;13.404;2023-09-12T08:07:46;10.43;;;7.20;;
18879;SDS011;9572;52.378;13.404;2023-09-12T08:10:13;15.13;;;6.78;;
18879;SDS011;9572;52.378;13.404;2023-09-12T08:12:41;10.60;;;6.80;;
18879;SDS011;9572;52.378;13.404;2023-09-12T08:15:12;19.83;;;7.35;;
18879;SDS011;9572;52.378;13.404;2023-09-12T08:17:43;15.57;;;6.75;;
18879;SDS011;9572;52.378;13.404;2023-09-12T08:20:16;12.32;;;6.40;;
18879;SDS011;9572;52.378;13.404;2023-09-12T08:22:46;18.98;;;6.70;;
18879;SDS011;9572;52.378;13.404;2023-09-12T08:25:13;15.02;;;6.13;;
18879;SDS011;9572;52.378;13.404;2023-09-12T08:27:41;16.17;;;6.63;;
18879;SDS011;9572;52.378;13.404;2023-09-12T08:30:11;17.92;;;7.43;;
18879;SDS011;9572;52.378;13.404;2023-09-12T08:32:41;16.42;;;6.50;;
18879;SDS011;9572;52.378;13.404;2023-09-12T08:35:22;15.13;;;6.40;;
18879;SDS011;9572;52.378;13.404;2023-09-12T08:37:56;9.45;;;6.55;;
18879;SDS011;9572;52.378;13.404;2023-09-12T08:40:23;17.05;;;7.60;;
18879;SDS011;9572;52.378;13.404;2023-09-12T08:42:54;14.93;;;6.45;;
18879;SDS011;9572;52.378;13.404;2023-09-12T08:45:24;12.90;;;6.45;;
18879;SDS011;9572;52.378;13.404;2023-09-12T08:47:54;16.85;;;6.65;;
18879;SDS011;9572;52.378;13.404;2023-09-12T08:50:23;10.85;;;5.95;;
18879;SDS011;9572;52.378;13.404;2023-09-12T08:52:57;11.45;;;6.25;;
18879;SDS011;9572;52.378;13.404;2023-09-12T08:55:24;17.65;;;6.35;;
18879;SDS011;9572;52.378;13.404;2023-09-12T08:57:52;13.57;;;6.65;;
18879;SDS011;9572;52.378;13.404;2023-09-12T09:00:22;18.80;;;6.72;;
18879;SDS011;9572;52.378;13.404;2023-09-12T09:02:52;12.80;;;6.43;;
18879;SDS011;9572;52.378;13.404;2023-09-12T09:05:21;13.15;;;6.55;;
18879;SDS011;9572;52.378;13.404;2023-09-12T09:07:51;14.27;;;5.97;;
18879;SDS011;9572;52.378;13.404;2023-09-12T09:10:26;11.13;;;5.35;;
18879;SDS011;9572;52.378;13.404;2023-09-12T09:12:57;12.23;;;5.95;;
18879;SDS011;9572;52.378;13.404;2023-09-12T09:15:40;15.57;;;6.20;;
18879;SDS011;9572;52.378;13.404;2023-09-12T09:18:07;11.43;;;5.82;;
18879;SDS011;9572;52.378;13.404;2023-09-12T09:20:36;14.75;;;5.65;;
18879;SDS011;9572;52.378;13.404;2023-09-12T09:23:04;17.05;;;5.45;;
18879;SDS011;9572;52.378;13.404;2023-09-12T09:25:36;15.45;;;5.78;;
18879;SDS011;9572;52.378;13.404;2023-09-12T09:28:15;22.33;;;5.25;;
18879;SDS011;9572;52.378;13.404;2023-09-12T09:30:43;13.48;;;5.25;;
18879;SDS011;9572;52.378;13.404;2023-09-12T09:33:11;9.90;;;4.75;;
18879;SDS011;9572;52.378;13.404;2023-09-12T09:35:40;12.57;;;4.50;;
18879;SDS011;9572;52.378;13.404;2023-09-12T09:38:08;11.95;;;4.75;;
18879;SDS011;9572;52.378;13.404;2023-09-12T09:40:36;15.80;;;5.03;;
18879;SDS011;9572;52.378;13.404;2023-09-12T09:43:03;12.18;;;4.78;;
18879;SDS011;9572;52.378;13.404;2023-09-12T09:45:31;18.08;;;5.43;;
18879;SDS011;9572;52.378;13.404;2023-09-12T09:47:58;13.77;;;5.22;;
18879;SDS011;9572;52.378;13.404;2023-09-12T09:50:25;12.90;;;5.05;;
18879;SDS011;9572;52.378;13.404;2023-09-12T09:52:53;16.80;;;5.65;;
18879;SDS011;9572;52.378;13.404;2023-09-12T09:55:23;14.82;;;5.97;;
18879;SDS011;9572;52.378;13.404;2023-09-12T09:57:51;15.63;;;5.85;;
18879;SDS011;9572;52.378;13.404;2023-09-12T10:00:20;25.48;;;6.47;;
18879;SDS011;9572;52.378;13.404;2023-09-12T10:02:47;25.65;;;6.68;;
18879;SDS011;9572;52.378;13.404;2023-09-12T10:05:16;14.15;;;6.35;;
18879;SDS011;9572;52.378;13.404;2023-09-12T10:07:44;18.08;;;6.75;;
18879;SDS011;9572;52.378;13.404;2023-09-12T10:10:16;18.90;;;6.07;;
18879;SDS011;9572;52.378;13.404;2023-09-12T10:12:48;20.65;;;6.70;;
18879;SDS011;9572;52.378;13.404;2023-09-12T10:15:18;19.77;;;6.60;;
18879;SDS011;9572;52.378;13.404;2023-09-12T10:17:50;21.15;;;6.20;;
18879;SDS011;9572;52.378;13.404;2023-09-12T10:20:21;19.90;;;6.25;;
18879;SDS011;9572;52.378;13.404;2023-09-12T10:22:52;13.57;;;6.22;;
18879;SDS011;9572;52.378;13.404;2023-09-12T10:25:28;18.95;;;7.15;;
18879;SDS011;9572;52.378;13.404;2023-09-12T10:27:55;16.33;;;6.10;;
18879;SDS011;9572;52.378;13.404;2023-09-12T10:30:24;20.45;;;6.72;;
18879;SDS011;9572;52.378;13.404;2023-09-12T10:32:51;21.80;;;6.45;;
18879;SDS011;9572;52.378;13.404;2023-09-12T10:35:19;19.80;;;6.70;;
18879;SDS011;9572;52.378;13.404;2023-09-12T10:37:46;26.88;;;7.22;;
18879;SDS011;9572;52.378;13.404;2023-09-12T10:40:17;16.85;;;6.30;;
18879;SDS011;9572;52.378;13.404;2023-09-12T10:42:45;17.58;;;6.57;;
18879;SDS011;9572;52.378;13.404;2023-09-12T10:45:14;18.80;;;6.20;;
18879;SDS011;9572;52.378;13.404;2023-09-12T10:47:43;19.85;;;6.90;;
18879;SDS011;9572;52.378;13.404;2023-09-12T10:50:10;21.73;;;7.57;;
18879;SDS011;9572;52.378;13.404;2023-09-12T10:52:38;26.13;;;7.15;;
18879;SDS011;9572;52.378;13.404;2023-09-12T10:55:06;14.20;;;6.38;;
18879;SDS011;9572;52.378;13.404;2023-09-12T10:57:33;18.55;;;6.70;;
18879;SDS011;9572;52.378;13.404;2023-09-12T11:00:10;20.15;;;6.07;;
18879;SDS011;9572;52.378;13.404;2023-09-12T11:02:38;16.20;;;6.20;;
18879;SDS011;9572;52.378;13.404;2023-09-12T11:05:34;16.25;;;6.35;;
18879;SDS011;9572;52.378;13.404;2023-09-12T11:08:01;21.50;;;7.10;;
18879;SDS011;9572;52.378;13.404;2023-09-12T11:10:29;20.83;;;6.30;;
18879;SDS011;9572;52.378;13.404;2023-09-12T11:12:57;13.48;;;6.07;;
18879;SDS011;9572;52.378;13.404;2023-09-12T11:15:25;14.63;;;5.97;;
18879;SDS011;9572;52.378;13.404;2023-09-12T11:18:00;20.50;;;6.40;;
18879;SDS011;9572;52.378;13.404;2023-09-12T11:23:28;13.63;;;5.90;;
18879;SDS011;9572;52.378;13.404;2023-09-12T11:26:03;15.50;;;6.10;;
18879;SDS011;9572;52.378;13.404;2023-09-12T11:28:32;20.60;;;6.78;;
18879;SDS011;9572;52.378;13.404;2023-09-12T11:30:59;17.63;;;6.10;;
18879;SDS011;9572;52.378;13.404;2023-09-12T11:33:26;14.88;;;6.03;;
18879;SDS011;9572;52.378;13.404;2023-09-12T11:35:55;18.65;;;7.13;;
18879;SDS011;9572;52.378;13.404;2023-09-12T11:38:27;21.45;;;7.18;;
18879;SDS011;9572;52.378;13.404;2023-09-12T11:40:55;25.33;;;7.30;;
18879;SDS011;9572;52.378;13.404;2023-09-12T11:43:24;24.80;;;6.82;;
18879;SDS011;9572;52.378;13.404;2023-09-12T11:45:52;26.92;;;7.75;;
18879;SDS011;9572;52.378;13.404;2023-09-12T11:48:20;22.75;;;6.75;;
18879;SDS011;9572;52.378;13.404;2023-09-12T11:50:51;24.30;;;7.45;;
18879;SDS011;9572;52.378;13.404;2023-09-12T11:53:21;20.15;;;7.47;;
18879;SDS011;9572;52.378;13.404;2023-09-12T11:55:51;21.17;;;7.05;;
18879;SDS011;9572;52.378;13.404;2023-09-12T11:58:20;21.98;;;7.82;;
18879;SDS011;9572;52.378;13.404;2023-09-12T12:00:48;26.92;;;7.50;;
18879;SDS011;9572;52.378;13.404;2023-09-12T12:03:16;22.13;;;7.28;;
18879;SDS011;9572;52.378;13.404;2023-09-12T12:05:44;17.27;;;7.80;;
18879;SDS011;9572;52.378;13.404;2023-09-12T12:08:12;19.35;;;6.72;;
18879;SDS011;9572;52.378;13.404;2023-09-12T12:10:41;23.10;;;7.35;;
18879;SDS011;9572;52.378;13.404;2023-09-12T12:13:10;17.27;;;7.65;;
18879;SDS011;9572;52.378;13.404;2023-09-12T12:15:37;15.77;;;7.03;;
18879;SDS011;9572;52.378;13.404;2023-09-12T12:18:05;18.15;;;7.00;;
18879;SDS011;9572;52.378;13.404;2023-09-12T12:20:32;21.27;;;6.55;;
18879;SDS011;9572;52.378;13.404;2023-09-12T12:22:59;17.02;;;6.97;;
18879;SDS011;9572;52.378;13.404;2023-09-12T12:25:26;15.23;;;7.22;;
18879;SDS011;9572;52.378;13.404;2023-09-12T12:27:54;16.58;;;6.20;;
18879;SDS011;9572;52.378;13.404;2023-09-12T12:30:21;18.42;;;6.53;;
18879;SDS011;9572;52.378;13.404;2023-09-12T12:32:48;17.58;;;6.35;;
18879;SDS011;9572;52.378;13.404;2023-09-12T12:35:18;13.15;;;6.03;;
18879;SDS011;9572;52.378;13.404;2023-09-12T12:37:47;17.13;;;6.10;;
18879;SDS011;9572;52.378;13.404;2023-09-12T12:40:15;10.43;;;5.97;;
18879;SDS011;9572;52.378;13.404;2023-09-12T12:42:43;14.30;;;6.57;;
18879;SDS011;9572;52.378;13.404;2023-09-12T12:45:16;18.13;;;6.78;;
18879;SDS011;9572;52.378;13.404;2023-09-12T12:47:44;13.98;;;6.45;;
18879;SDS011;9572;52.378;13.404;2023-09-12T12:50:11;11.48;;;6.07;;
18879;SDS011;9572;52.378;13.404;2023-09-12T12:52:39;13.43;;;6.28;;
18879;SDS011;9572;52.378;13.404;2023-09-12T12:55:06;15.57;;;6.57;;
18879;SDS011;9572;52.378;13.404;2023-09-12T12:57:36;14.55;;;6.45;;
18879;SDS011;9572;52.378;13.404;2023-09-12T13:00:05;14.02;;;6.05;;
18879;SDS011;9572;52.378;13.404;2023-09-12T13:02:37;15.73;;;5.63;;
18879;SDS011;9572;52.378;13.404;2023-09-12T13:05:06;9.85;;;5.78;;
18879;SDS011;9572;52.378;13.404;2023-09-12T13:07:46;9.68;;;5.85;;
18879;SDS011;9572;52.378;13.404;2023-09-12T13:10:13;25.08;;;6.40;;
18879;SDS011;9572;52.378;13.404;2023-09-12T13:12:40;18.33;;;6.35;;
18879;SDS011;9572;52.378;13.404;2023-09-12T13:15:08;18.88;;;6.35;;
18879;SDS011;9572;52.378;13.404;2023-09-12T13:17:37;14.93;;;5.85;;
18879;SDS011;9572;52.378;13.404;2023-09-12T13:20:05;14.02;;;6.10;;
18879;SDS011;9572;52.378;13.404;2023-09-12T13:22:33;14.93;;;5.75;;
18879;SDS011;9572;52.378;13.404;2023-09-12T13:25:01;12.05;;;6.18;;
18879;SDS011;9572;52.378;13.404;2023-09-12T13:27:29;17.20;;;6.25;;
18879;SDS011;9572;52.378;13.404;2023-09-12T13:29:56;18.02;;;6.28;;
18879;SDS011;9572;52.378;13.404;2023-09-12T13:32:22;16.00;;;5.75;;
18879;SDS011;9572;52.378;13.404;2023-09-12T13:34:52;13.60;;;6.22;;
18879;SDS011;9572;52.378;13.404;2023-09-12T13:37:19;9.50;;;5.97;;
18879;SDS011;9572;52.378;13.404;2023-09-12T13:39:46;14.13;;;6.03;;
18879;SDS011;9572;52.378;13.404;2023-09-12T13:42:14;11.10;;;6.30;;
18879;SDS011;9572;52.378;13.404;2023-09-12T13:44:43;23.52;;;6.47;;
18879;SDS011;9572;52.378;13.404;2023-09-12T13:47:10;16.05;;;6.63;;
18879;SDS011;9572;52.378;13.404;2023-09-12T13:49:37;14.18;;;5.70;;
18879;SDS011;9572;52.378;13.404;2023-09-12T13:52:05;14.77;;;5.63;;
18879;SDS011;9572;52.378;13.404;2023-09-12T13:54:32;17.13;;;5.85;;
18879;SDS011;9572;52.378;13.404;2023-09-12T13:56:59;12.20;;;5.63;;
18879;SDS011;9572;52.378;13.404;2023-09-12T13:59:26;14.05;;;5.80;;
18879;SDS011;9572;52.378;13.404;2023-09-12T14:01:53;11.63;;;5.63;;
18879;SDS011;9572;52.378;13.404;2023-09-12T14:04:19;18.75;;;6.47;;
18879;SDS011;9572;52.378;13.404;2023-09-12T14:06:46;14.98;;;5.78;;
18879;SDS011;9572;52.378;13.404;2023-09-12T14:09:14;14.10;;;5.80;;
18879;SDS011;9572;52.378;13.404;2023-09-12T14:11:41;13.55;;;5.75;;
18879;SDS011;9572;52.378;13.404;2023-09-12T14:14:08;10.00;;;5.38;;
18879;SDS011;9572;52.378;13.404;2023-09-12T14:16:35;15.25;;;5.78;;
18879;SDS011;9572;52.378;13.404;2023-09-12T14:19:02;13.38;;;5.22;;
18879;SDS011;9572;52.378;13.404;2023-09-12T14:21:29;12.80;;;4.93;;
18879;SDS011;9572;52.378;13.404;2023-09-12T14:23:56;13.55;;;5.38;;
18879;SDS011;9572;52.378;13.404;2023-09-12T14:26:25;17.17;;;6.13;;
18879;SDS011;9572;52.378;13.404;2023-09-12T14:28:52;13.63;;;5.53;;
18879;SDS011;9572;52.378;13.404;2023-09-12T14:31:20;8.98;;;5.00;;
18879;SDS011;9572;52.378;13.404;2023-09-12T14:33:48;15.70;;;5.55;;
18879;SDS011;9572;52.378;13.404;2023-09-12T14:36:15;14.82;;;5.35;;
18879;SDS011;9572;52.378;13.404;2023-09-12T14:38:42;10.85;;;4.80;;
18879;SDS011;9572;52.378;13.404;2023-09-12T14:41:11;9.13;;;4.82;;
18879;SDS011;9572;52.378;13.404;2023-09-12T14:43:40;19.95;;;5.05;;
18879;SDS011;9572;52.378;13.404;2023-09-12T14:46:07;13.38;;;5.00;;
18879;SDS011;9572;52.378;13.404;2023-09-12T14:48:35;25.02;;;5.43;;
18879;SDS011;9572;52.378;13.404;2023-09-12T14:51:02;17.33;;;4.93;;
18879;SDS011;9572;52.378;13.404;2023-09-12T14:53:29;11.73;;;4.75;;
18879;SDS011;9572;52.378;13.404;2023-09-12T14:55:57;14.77;;;4.65;;
18879;SDS011;9572;52.378;13.404;2023-09-12T14:58:23;13.32;;;4.72;;
18879;SDS011;9572;52.378;13.404;2023-09-12T15:00:52;16.80;;;5.38;;
18879;SDS011;9572;52.378;13.404;2023-09-12T15:03:19;19.25;;;5.80;;
18879;SDS011;9572;52.378;13.404;2023-09-12T15:05:45;11.50;;;5.22;;
18879;SDS011;9572;52.378;13.404;2023-09-12T15:08:12;8.27;;;4.28;;
18879;SDS011;9572;52.378;13.404;2023-09-12T15:10:39;7.63;;;3.67;;
18879;SDS011;9572;52.378;13.404;2023-09-12T15:15:37;3.80;;;2.90;;
18879;SDS011;9572;52.378;13.404;2023-09-12T15:18:06;12.20;;;3.20;;
18879;SDS011;9572;52.378;13.404;2023-09-12T15:20:33;6.90;;;3.05;;
18879;SDS011;9572;52.378;13.404;2023-09-12T15:22:59;5.25;;;2.80;;
18879;SDS011;9572;52.378;13.404;2023-09-12T15:25:26;8.27;;;3.22;;
18879;SDS011;9572;52.378;13.404;2023-09-12T15:27:53;5.53;;;2.90;;
18879;SDS011;9572;52.378;13.404;2023-09-12T15:30:20;7.15;;;3.50;;
18879;SDS011;9572;52.378;13.404;2023-09-12T15:32:47;5.32;;;2.60;;
18879;SDS011;9572;52.378;13.404;2023-09-12T15:35:15;2.70;;;2.50;;
18879;SDS011;9572;52.378;13.404;2023-09-12T15:37:42;4.53;;;2.80;;
18879;SDS011;9572;52.378;13.404;2023-09-12T15:40:09;5.53;;;2.60;;
18879;SDS011;9572;52.378;13.404;2023-09-12T15:42:37;7.82;;;2.60;;
18879;SDS011;9572;52.378;13.404;2023-09-12T15:45:04;2.95;;;2.40;;
18879;SDS011;9572;52.378;13.404;2023-09-12T15:47:33;4.80;;;2.80;;
18879;SDS011;9572;52.378;13.404;2023-09-12T15:50:00;9.75;;;2.90;;
18879;SDS011;9572;52.378;13.404;2023-09-12T15:52:29;4.20;;;2.60;;
18879;SDS011;9572;52.378;13.404;2023-09-12T15:54:56;4.95;;;2.70;;
18879;SDS011;9572;52.378;13.404;2023-09-12T15:57:23;4.03;;;2.90;;
18879;SDS011;9572;52.378;13.404;2023-09-12T15:59:50;8.20;;;2.75;;
18879;SDS011;9572;52.378;13.404;2023-09-12T16:02:17;5.15;;;2.92;;
18879;SDS011;9572;52.378;13.404;2023-09-12T16:04:44;9.80;;;2.92;;
18879;SDS011;9572;52.378;13.404;2023-09-12T16:07:10;8.07;;;3.00;;
18879;SDS011;9572;52.378;13.404;2023-09-12T16:09:39;3.25;;;2.78;;
18879;SDS011;9572;52.378;13.404;2023-09-12T16:12:06;4.30;;;2.90;;
18879;SDS011;9572;52.378;13.404;2023-09-12T16:14:33;4.45;;;2.40;;
18879;SDS011;9572;52.378;13.404;2023-09-12T16:17:00;5.80;;;2.97;;
18879;SDS011;9572;52.378;13.404;2023-09-12T16:19:27;2.95;;;2.55;;
18879;SDS011;9572;52.378;13.404;2023-09-12T16:21:54;3.42;;;2.90;;
18879;SDS011;9572;52.378;13.404;2023-09-12T16:24:21;3.28;;;2.60;;
18879;SDS011;9572;52.378;13.404;2023-09-12T16:26:49;3.97;;;2.55;;
18879;SDS011;9572;52.378;13.404;2023-09-12T16:29:16;4.30;;;2.42;;